sensor_id;sensor_type;location;lat;lon;timestamp;temperature;humidity
12504;DHT22;6316;48.118;-1.690;2022-11-03T00:01:33;15.10;99.90
12504;DHT22;6316;48.118;-1.690;2022-11-03T00:03:59;15.10;99.90
12504;DHT22;6316;48.118;-1.690;2022-11-03T00:06:25;15.10;99.90
12504;DHT22;6316;48.118;-1.690;2022-11-03T00:08:50;15.10;99.90
12504;DHT22;6316;48.118;-1.690;2022-11-03T00:11:16;15.10;99.90
12504;DHT22;6316;48.118;-1.690;2022-11-03T00:13:43;15.10;99.90
12504;DHT22;6316;48.118;-1.690;2022-11-03T00:16:12;15.10;99.90
12504;DHT22;6316;48.118;-1.690;2022-11-03T00:18:38;15.10;99.90
12504;DHT22;6316;48.118;-1.690;2022-11-03T00:21:06;15.10;99.90
12504;DHT22;6316;48.118;-1.690;2022-11-03T00:23:34;15.10;99.90
12504;DHT22;6316;48.118;-1.690;2022-11-03T00:26:12;15.10;99.90
12504;DHT22;6316;48.118;-1.690;2022-11-03T00:28:47;15.10;99.90
12504;DHT22;6316;48.118;-1.690;2022-11-03T00:31:16;15.10;99.90
12504;DHT22;6316;48.118;-1.690;2022-11-03T00:33:43;15.10;99.90
12504;DHT22;6316;48.118;-1.690;2022-11-03T00:36:13;15.20;99.90
12504;DHT22;6316;48.118;-1.690;2022-11-03T00:38:39;15.20;99.90
12504;DHT22;6316;48.118;-1.690;2022-11-03T00:41:05;15.20;99.90
12504;DHT22;6316;48.118;-1.690;2022-11-03T00:43:33;15.10;99.90
12504;DHT22;6316;48.118;-1.690;2022-11-03T00:45:59;15.10;99.90
12504;DHT22;6316;48.118;-1.690;2022-11-03T00:48:25;15.10;99.90
12504;DHT22;6316;48.118;-1.690;2022-11-03T00:51:03;15.10;99.90
12504;DHT22;6316;48.118;-1.690;2022-11-03T00:53:43;15.10;99.90
12504;DHT22;6316;48.118;-1.690;2022-11-03T00:56:20;15.10;99.90
12504;DHT22;6316;48.118;-1.690;2022-11-03T00:58:48;15.10;99.90
12504;DHT22;6316;48.118;-1.690;2022-11-03T01:01:17;15.10;99.90
12504;DHT22;6316;48.118;-1.690;2022-11-03T01:03:45;15.10;99.90
12504;DHT22;6316;48.118;-1.690;2022-11-03T01:06:40;15.10;99.90
12504;DHT22;6316;48.118;-1.690;2022-11-03T01:09:36;15.10;99.90
12504;DHT22;6316;48.118;-1.690;2022-11-03T01:12:11;15.10;99.90
12504;DHT22;6316;48.118;-1.690;2022-11-03T01:17:19;15.10;99.90
12504;DHT22;6316;48.118;-1.690;2022-11-03T01:19:45;15.10;99.90
12504;DHT22;6316;48.118;-1.690;2022-11-03T01:22:12;15.10;99.90
12504;DHT22;6316;48.118;-1.690;2022-11-03T01:24:39;15.10;99.90
12504;DHT22;6316;48.118;-1.690;2022-11-03T01:27:13;15.10;99.90
12504;DHT22;6316;48.118;-1.690;2022-11-03T01:29:39;15.10;99.90
12504;DHT22;6316;48.118;-1.690;2022-11-03T01:32:05;15.00;99.90
12504;DHT22;6316;48.118;-1.690;2022-11-03T01:34:30;15.00;99.90
12504;DHT22;6316;48.118;-1.690;2022-11-03T01:36:56;15.00;99.90
12504;DHT22;6316;48.118;-1.690;2022-11-03T01:39:22;15.00;99.90
12504;DHT22;6316;48.118;-1.690;2022-11-03T01:41:49;15.00;99.90
12504;DHT22;6316;48.118;-1.690;2022-11-03T01:47:19;15.00;99.90
12504;DHT22;6316;48.118;-1.690;2022-11-03T01:50:12;15.00;99.90
12504;DHT22;6316;48.118;-1.690;2022-11-03T01:52:54;15.00;99.90
12504;DHT22;6316;48.118;-1.690;2022-11-03T01:55:27;15.00;99.90
12504;DHT22;6316;48.118;-1.690;2022-11-03T01:58:04;15.00;99.90
12504;DHT22;6316;48.118;-1.690;2022-11-03T02:00:32;15.00;99.90
12504;DHT22;6316;48.118;-1.690;2022-11-03T02:02:58;15.00;99.90
12504;DHT22;6316;48.118;-1.690;2022-11-03T02:05:25;15.00;99.90
12504;DHT22;6316;48.118;-1.690;2022-11-03T02:08:18;15.00;99.90
12504;DHT22;6316;48.118;-1.690;2022-11-03T02:10:48;15.00;99.90
12504;DHT22;6316;48.118;-1.690;2022-11-03T02:13:21;15.00;99.90
12504;DHT22;6316;48.118;-1.690;2022-11-03T02:15:52;15.10;99.90
12504;DHT22;6316;48.118;-1.690;2022-11-03T02:18:21;15.10;99.90
12504;DHT22;6316;48.118;-1.690;2022-11-03T02:24:36;15.10;99.90
12504;DHT22;6316;48.118;-1.690;2022-11-03T02:27:07;15.10;99.90
12504;DHT22;6316;48.118;-1.690;2022-11-03T02:29:33;15.10;99.90
12504;DHT22;6316;48.118;-1.690;2022-11-03T02:32:29;15.10;99.90
12504;DHT22;6316;48.118;-1.690;2022-11-03T02:37:59;15.10;99.90
12504;DHT22;6316;48.118;-1.690;2022-11-03T02:40:29;15.10;99.90
12504;DHT22;6316;48.118;-1.690;2022-11-03T02:42:57;15.10;99.90
12504;DHT22;6316;48.118;-1.690;2022-11-03T02:45:24;15.10;99.90
12504;DHT22;6316;48.118;-1.690;2022-11-03T02:47:53;15.10;99.90
12504;DHT22;6316;48.118;-1.690;2022-11-03T02:50:19;15.10;99.90
12504;DHT22;6316;48.118;-1.690;2022-11-03T02:52:47;15.10;99.90
12504;DHT22;6316;48.118;-1.690;2022-11-03T02:55:39;15.10;99.90
12504;DHT22;6316;48.118;-1.690;2022-11-03T03:01:02;15.10;99.90
12504;DHT22;6316;48.118;-1.690;2022-11-03T03:03:33;15.00;99.90
12504;DHT22;6316;48.118;-1.690;2022-11-03T03:06:14;15.00;99.90
12504;DHT22;6316;48.118;-1.690;2022-11-03T03:08:44;15.00;99.90
12504;DHT22;6316;48.118;-1.690;2022-11-03T03:11:12;15.00;99.90
12504;DHT22;6316;48.118;-1.690;2022-11-03T03:13:40;15.00;99.90
12504;DHT22;6316;48.118;-1.690;2022-11-03T03:16:14;15.00;99.90
12504;DHT22;6316;48.118;-1.690;2022-11-03T03:18:50;14.90;99.90
12504;DHT22;6316;48.118;-1.690;2022-11-03T03:21:21;14.90;99.90
12504;DHT22;6316;48.118;-1.690;2022-11-03T03:23:57;14.90;99.90
12504;DHT22;6316;48.118;-1.690;2022-11-03T03:26:34;14.90;99.90
12504;DHT22;6316;48.118;-1.690;2022-11-03T03:29:06;14.80;99.90
12504;DHT22;6316;48.118;-1.690;2022-11-03T03:31:36;14.80;99.90
12504;DHT22;6316;48.118;-1.690;2022-11-03T03:34:03;14.80;99.90
12504;DHT22;6316;48.118;-1.690;2022-11-03T03:36:31;14.80;99.90
12504;DHT22;6316;48.118;-1.690;2022-11-03T03:39:01;14.80;99.90
12504;DHT22;6316;48.118;-1.690;2022-11-03T03:41:29;14.70;99.90
12504;DHT22;6316;48.118;-1.690;2022-11-03T03:43:59;14.80;99.90
12504;DHT22;6316;48.118;-1.690;2022-11-03T03:46:32;14.80;99.90
12504;DHT22;6316;48.118;-1.690;2022-11-03T03:48:59;14.80;99.90
12504;DHT22;6316;48.118;-1.690;2022-11-03T03:51:26;14.90;99.90
12504;DHT22;6316;48.118;-1.690;2022-11-03T03:53:53;14.90;99.90
12504;DHT22;6316;48.118;-1.690;2022-11-03T03:56:27;14.90;99.90
12504;DHT22;6316;48.118;-1.690;2022-11-03T03:58:54;14.90;99.90
12504;DHT22;6316;48.118;-1.690;2022-11-03T04:01:20;14.90;99.90
12504;DHT22;6316;48.118;-1.690;2022-11-03T04:03:45;14.90;99.90
12504;DHT22;6316;48.118;-1.690;2022-11-03T04:06:11;14.80;99.90
12504;DHT22;6316;48.118;-1.690;2022-11-03T04:08:37;14.80;99.90
12504;DHT22;6316;48.118;-1.690;2022-11-03T04:11:02;14.80;99.90
12504;DHT22;6316;48.118;-1.690;2022-11-03T04:13:46;14.80;99.90
12504;DHT22;6316;48.118;-1.690;2022-11-03T04:16:30;14.80;99.90
12504;DHT22;6316;48.118;-1.690;2022-11-03T04:19:15;14.80;99.90
12504;DHT22;6316;48.118;-1.690;2022-11-03T04:21:59;14.80;99.90
12504;DHT22;6316;48.118;-1.690;2022-11-03T04:24:45;14.80;99.90
12504;DHT22;6316;48.118;-1.690;2022-11-03T04:27:23;14.80;99.90
12504;DHT22;6316;48.118;-1.690;2022-11-03T04:29:51;14.80;99.90
12504;DHT22;6316;48.118;-1.690;2022-11-03T04:32:17;14.80;99.90
12504;DHT22;6316;48.118;-1.690;2022-11-03T04:34:45;14.90;99.90
12504;DHT22;6316;48.118;-1.690;2022-11-03T04:37:12;14.90;99.90
12504;DHT22;6316;48.118;-1.690;2022-11-03T04:39:38;14.90;99.90
12504;DHT22;6316;48.118;-1.690;2022-11-03T04:42:20;14.90;99.90
12504;DHT22;6316;48.118;-1.690;2022-11-03T04:44:47;14.90;99.90
12504;DHT22;6316;48.118;-1.690;2022-11-03T04:47:15;14.90;99.90
12504;DHT22;6316;48.118;-1.690;2022-11-03T04:49:43;14.90;99.90
12504;DHT22;6316;48.118;-1.690;2022-11-03T04:52:16;14.90;99.90
12504;DHT22;6316;48.118;-1.690;2022-11-03T04:54:42;14.90;99.90
12504;DHT22;6316;48.118;-1.690;2022-11-03T04:57:10;14.90;99.90
12504;DHT22;6316;48.118;-1.690;2022-11-03T04:59:37;14.90;99.90
12504;DHT22;6316;48.118;-1.690;2022-11-03T05:02:08;14.90;99.90
12504;DHT22;6316;48.118;-1.690;2022-11-03T05:04:34;14.90;99.90
12504;DHT22;6316;48.118;-1.690;2022-11-03T05:07:00;14.90;99.90
12504;DHT22;6316;48.118;-1.690;2022-11-03T05:09:28;14.90;99.90
12504;DHT22;6316;48.118;-1.690;2022-11-03T05:11:55;14.90;99.90
12504;DHT22;6316;48.118;-1.690;2022-11-03T05:14:21;14.90;99.90
12504;DHT22;6316;48.118;-1.690;2022-11-03T05:16:48;14.90;99.90
12504;DHT22;6316;48.118;-1.690;2022-11-03T05:19:40;14.90;99.90
12504;DHT22;6316;48.118;-1.690;2022-11-03T05:22:11;14.90;99.90
12504;DHT22;6316;48.118;-1.690;2022-11-03T05:24:39;14.90;99.90
12504;DHT22;6316;48.118;-1.690;2022-11-03T05:27:11;14.90;99.90
12504;DHT22;6316;48.118;-1.690;2022-11-03T05:29:40;14.90;99.90
12504;DHT22;6316;48.118;-1.690;2022-11-03T05:32:20;14.80;99.90
12504;DHT22;6316;48.118;-1.690;2022-11-03T05:34:49;14.80;99.90
12504;DHT22;6316;48.118;-1.690;2022-11-03T05:37:27;14.80;99.90
12504;DHT22;6316;48.118;-1.690;2022-11-03T05:39:59;14.80;99.90
12504;DHT22;6316;48.118;-1.690;2022-11-03T05:42:35;14.80;99.90
12504;DHT22;6316;48.118;-1.690;2022-11-03T05:45:11;14.80;99.90
12504;DHT22;6316;48.118;-1.690;2022-11-03T05:47:39;14.80;99.90
12504;DHT22;6316;48.118;-1.690;2022-11-03T05:50:32;14.80;99.90
12504;DHT22;6316;48.118;-1.690;2022-11-03T05:53:24;14.80;99.90
12504;DHT22;6316;48.118;-1.690;2022-11-03T05:55:51;14.80;99.90
12504;DHT22;6316;48.118;-1.690;2022-11-03T05:58:36;14.80;99.90
12504;DHT22;6316;48.118;-1.690;2022-11-03T06:03:43;14.80;99.90
12504;DHT22;6316;48.118;-1.690;2022-11-03T06:06:32;14.70;99.90
12504;DHT22;6316;48.118;-1.690;2022-11-03T06:09:01;14.80;99.90
12504;DHT22;6316;48.118;-1.690;2022-11-03T06:11:31;14.70;99.90
12504;DHT22;6316;48.118;-1.690;2022-11-03T06:13:58;14.80;99.90
12504;DHT22;6316;48.118;-1.690;2022-11-03T06:18:59;14.80;99.90
12504;DHT22;6316;48.118;-1.690;2022-11-03T06:21:26;14.80;99.90
12504;DHT22;6316;48.118;-1.690;2022-11-03T06:23:52;14.80;99.90
12504;DHT22;6316;48.118;-1.690;2022-11-03T06:26:24;14.80;99.90
12504;DHT22;6316;48.118;-1.690;2022-11-03T06:28:50;14.80;99.90
12504;DHT22;6316;48.118;-1.690;2022-11-03T06:33:41;14.80;99.90
12504;DHT22;6316;48.118;-1.690;2022-11-03T06:36:18;14.70;99.90
12504;DHT22;6316;48.118;-1.690;2022-11-03T06:38:51;14.80;99.90
12504;DHT22;6316;48.118;-1.690;2022-11-03T06:41:27;14.80;99.90
12504;DHT22;6316;48.118;-1.690;2022-11-03T06:43:53;14.70;99.90
12504;DHT22;6316;48.118;-1.690;2022-11-03T06:46:24;14.80;99.90
12504;DHT22;6316;48.118;-1.690;2022-11-03T06:48:59;14.80;99.90
12504;DHT22;6316;48.118;-1.690;2022-11-03T06:51:27;14.70;99.90
12504;DHT22;6316;48.118;-1.690;2022-11-03T06:53:56;14.80;99.90
12504;DHT22;6316;48.118;-1.690;2022-11-03T06:56:25;14.70;99.90
12504;DHT22;6316;48.118;-1.690;2022-11-03T06:58:53;14.80;99.90
12504;DHT22;6316;48.118;-1.690;2022-11-03T07:01:32;14.70;99.90
12504;DHT22;6316;48.118;-1.690;2022-11-03T07:04:02;14.70;99.90
12504;DHT22;6316;48.118;-1.690;2022-11-03T07:06:33;14.70;99.90
12504;DHT22;6316;48.118;-1.690;2022-11-03T07:09:02;14.70;99.90
12504;DHT22;6316;48.118;-1.690;2022-11-03T07:11:31;14.70;99.90
12504;DHT22;6316;48.118;-1.690;2022-11-03T07:14:13;14.70;99.90
12504;DHT22;6316;48.118;-1.690;2022-11-03T07:16:45;14.80;99.90
12504;DHT22;6316;48.118;-1.690;2022-11-03T07:22:21;14.80;99.90
12504;DHT22;6316;48.118;-1.690;2022-11-03T07:24:50;14.90;99.90
12504;DHT22;6316;48.118;-1.690;2022-11-03T07:27:28;14.90;99.90
12504;DHT22;6316;48.118;-1.690;2022-11-03T07:32:42;14.90;99.90
12504;DHT22;6316;48.118;-1.690;2022-11-03T07:35:40;15.00;99.90
12504;DHT22;6316;48.118;-1.690;2022-11-03T07:38:12;15.00;99.90
12504;DHT22;6316;48.118;-1.690;2022-11-03T07:40:39;15.10;99.90
12504;DHT22;6316;48.118;-1.690;2022-11-03T07:43:19;15.10;99.90
12504;DHT22;6316;48.118;-1.690;2022-11-03T07:45:54;15.20;99.90
12504;DHT22;6316;48.118;-1.690;2022-11-03T07:51:35;15.30;99.90
12504;DHT22;6316;48.118;-1.690;2022-11-03T07:56:33;15.30;99.90
12504;DHT22;6316;48.118;-1.690;2022-11-03T07:59:00;15.30;99.90
12504;DHT22;6316;48.118;-1.690;2022-11-03T08:01:30;15.30;99.90
12504;DHT22;6316;48.118;-1.690;2022-11-03T08:04:02;15.20;99.90
12504;DHT22;6316;48.118;-1.690;2022-11-03T08:06:30;15.20;99.90
12504;DHT22;6316;48.118;-1.690;2022-11-03T08:08:55;15.10;99.90
12504;DHT22;6316;48.118;-1.690;2022-11-03T08:11:21;15.10;99.90
12504;DHT22;6316;48.118;-1.690;2022-11-03T08:13:49;15.00;99.90
12504;DHT22;6316;48.118;-1.690;2022-11-03T08:16:15;14.90;99.90
12504;DHT22;6316;48.118;-1.690;2022-11-03T08:18:40;14.90;99.90
12504;DHT22;6316;48.118;-1.690;2022-11-03T08:21:06;14.90;99.90
12504;DHT22;6316;48.118;-1.690;2022-11-03T08:23:31;14.80;99.90
12504;DHT22;6316;48.118;-1.690;2022-11-03T08:25:57;14.70;99.90
12504;DHT22;6316;48.118;-1.690;2022-11-03T08:28:23;14.50;99.90
12504;DHT22;6316;48.118;-1.690;2022-11-03T08:30:48;14.30;99.90
12504;DHT22;6316;48.118;-1.690;2022-11-03T08:33:14;14.10;99.90
12504;DHT22;6316;48.118;-1.690;2022-11-03T08:35:39;14.00;99.90
12504;DHT22;6316;48.118;-1.690;2022-11-03T08:38:06;14.00;99.90
12504;DHT22;6316;48.118;-1.690;2022-11-03T08:40:31;13.90;99.90
12504;DHT22;6316;48.118;-1.690;2022-11-03T08:42:57;13.80;99.90
12504;DHT22;6316;48.118;-1.690;2022-11-03T08:45:22;13.80;99.90
12504;DHT22;6316;48.118;-1.690;2022-11-03T08:47:48;13.70;99.90
12504;DHT22;6316;48.118;-1.690;2022-11-03T08:50:14;13.80;99.90
12504;DHT22;6316;48.118;-1.690;2022-11-03T08:52:40;13.70;99.90
12504;DHT22;6316;48.118;-1.690;2022-11-03T08:55:05;13.70;99.90
12504;DHT22;6316;48.118;-1.690;2022-11-03T08:57:46;13.70;99.90
12504;DHT22;6316;48.118;-1.690;2022-11-03T09:00:12;13.70;99.90
12504;DHT22;6316;48.118;-1.690;2022-11-03T09:02:38;13.70;99.90
12504;DHT22;6316;48.118;-1.690;2022-11-03T09:05:04;13.70;99.90
12504;DHT22;6316;48.118;-1.690;2022-11-03T09:07:32;13.70;99.90
12504;DHT22;6316;48.118;-1.690;2022-11-03T09:09:57;13.70;99.90
12504;DHT22;6316;48.118;-1.690;2022-11-03T09:12:23;13.60;99.90
12504;DHT22;6316;48.118;-1.690;2022-11-03T09:14:49;13.60;99.90
12504;DHT22;6316;48.118;-1.690;2022-11-03T09:17:14;13.60;99.90
12504;DHT22;6316;48.118;-1.690;2022-11-03T09:19:40;13.60;99.90
12504;DHT22;6316;48.118;-1.690;2022-11-03T09:22:05;13.60;99.90
12504;DHT22;6316;48.118;-1.690;2022-11-03T09:24:31;13.60;99.90
12504;DHT22;6316;48.118;-1.690;2022-11-03T09:26:56;13.50;99.90
12504;DHT22;6316;48.118;-1.690;2022-11-03T09:29:22;13.50;99.90
12504;DHT22;6316;48.118;-1.690;2022-11-03T09:31:48;13.50;99.90
12504;DHT22;6316;48.118;-1.690;2022-11-03T09:34:13;13.40;99.90
12504;DHT22;6316;48.118;-1.690;2022-11-03T09:36:39;13.40;99.90
12504;DHT22;6316;48.118;-1.690;2022-11-03T09:39:05;13.40;99.90
12504;DHT22;6316;48.118;-1.690;2022-11-03T09:41:31;13.40;99.90
12504;DHT22;6316;48.118;-1.690;2022-11-03T09:43:57;13.40;99.90
12504;DHT22;6316;48.118;-1.690;2022-11-03T09:46:24;13.40;99.90
12504;DHT22;6316;48.118;-1.690;2022-11-03T09:48:49;13.40;99.90
12504;DHT22;6316;48.118;-1.690;2022-11-03T09:51:19;13.40;99.90
12504;DHT22;6316;48.118;-1.690;2022-11-03T09:53:46;13.40;99.90
12504;DHT22;6316;48.118;-1.690;2022-11-03T09:56:12;13.40;99.90
12504;DHT22;6316;48.118;-1.690;2022-11-03T09:58:37;13.40;99.90
12504;DHT22;6316;48.118;-1.690;2022-11-03T10:01:04;13.40;99.90
12504;DHT22;6316;48.118;-1.690;2022-11-03T10:03:30;13.40;99.90
12504;DHT22;6316;48.118;-1.690;2022-11-03T10:05:56;13.40;99.90
12504;DHT22;6316;48.118;-1.690;2022-11-03T10:08:23;13.40;99.90
12504;DHT22;6316;48.118;-1.690;2022-11-03T10:10:50;13.50;99.90
12504;DHT22;6316;48.118;-1.690;2022-11-03T10:13:44;13.50;99.90
12504;DHT22;6316;48.118;-1.690;2022-11-03T10:16:16;13.60;99.90
12504;DHT22;6316;48.118;-1.690;2022-11-03T10:18:42;13.60;99.90
12504;DHT22;6316;48.118;-1.690;2022-11-03T10:21:17;13.60;99.90
12504;DHT22;6316;48.118;-1.690;2022-11-03T10:23:43;13.70;99.90
12504;DHT22;6316;48.118;-1.690;2022-11-03T10:26:11;13.70;99.90
12504;DHT22;6316;48.118;-1.690;2022-11-03T10:28:37;13.70;99.90
12504;DHT22;6316;48.118;-1.690;2022-11-03T10:31:05;13.80;99.90
12504;DHT22;6316;48.118;-1.690;2022-11-03T10:33:41;13.90;99.90
12504;DHT22;6316;48.118;-1.690;2022-11-03T10:38:41;14.00;99.90
12504;DHT22;6316;48.118;-1.690;2022-11-03T10:43:39;14.00;99.90
12504;DHT22;6316;48.118;-1.690;2022-11-03T10:46:20;14.00;99.90
12504;DHT22;6316;48.118;-1.690;2022-11-03T10:49:22;13.90;99.90
12504;DHT22;6316;48.118;-1.690;2022-11-03T10:51:51;13.90;99.90
12504;DHT22;6316;48.118;-1.690;2022-11-03T10:54:21;13.90;99.90
12504;DHT22;6316;48.118;-1.690;2022-11-03T10:56:48;13.80;99.90
12504;DHT22;6316;48.118;-1.690;2022-11-03T10:59:23;13.80;99.90
12504;DHT22;6316;48.118;-1.690;2022-11-03T11:01:57;13.90;99.90
12504;DHT22;6316;48.118;-1.690;2022-11-03T11:04:22;13.90;99.90
12504;DHT22;6316;48.118;-1.690;2022-11-03T11:06:48;13.90;99.90
12504;DHT22;6316;48.118;-1.690;2022-11-03T11:09:21;13.90;99.90
12504;DHT22;6316;48.118;-1.690;2022-11-03T11:16:55;14.00;99.90
12504;DHT22;6316;48.118;-1.690;2022-11-03T11:19:22;14.10;99.90
12504;DHT22;6316;48.118;-1.690;2022-11-03T11:21:57;14.20;99.90
12504;DHT22;6316;48.118;-1.690;2022-11-03T11:33:11;14.50;99.90
12504;DHT22;6316;48.118;-1.690;2022-11-03T11:41:06;14.70;99.90
12504;DHT22;6316;48.118;-1.690;2022-11-03T11:43:32;14.80;99.90
12504;DHT22;6316;48.118;-1.690;2022-11-03T11:51:27;15.00;99.90
12504;DHT22;6316;48.118;-1.690;2022-11-03T11:53:57;15.10;99.90
12504;DHT22;6316;48.118;-1.690;2022-11-03T11:56:22;15.10;99.90
12504;DHT22;6316;48.118;-1.690;2022-11-03T11:58:50;15.20;99.90
12504;DHT22;6316;48.118;-1.690;2022-11-03T12:01:33;15.20;99.90
12504;DHT22;6316;48.118;-1.690;2022-11-03T12:04:22;15.30;99.90
12504;DHT22;6316;48.118;-1.690;2022-11-03T12:06:48;15.40;99.90
12504;DHT22;6316;48.118;-1.690;2022-11-03T12:09:19;15.50;99.90
12504;DHT22;6316;48.118;-1.690;2022-11-03T12:11:47;15.50;99.90
12504;DHT22;6316;48.118;-1.690;2022-11-03T12:14:31;15.60;99.90
12504;DHT22;6316;48.118;-1.690;2022-11-03T12:16:58;15.60;99.90
12504;DHT22;6316;48.118;-1.690;2022-11-03T12:19:51;15.60;99.90
12504;DHT22;6316;48.118;-1.690;2022-11-03T12:24:49;15.60;99.90
12504;DHT22;6316;48.118;-1.690;2022-11-03T12:29:56;15.60;99.90
12504;DHT22;6316;48.118;-1.690;2022-11-03T12:32:23;15.50;99.90
12504;DHT22;6316;48.118;-1.690;2022-11-03T12:34:49;15.50;99.90
12504;DHT22;6316;48.118;-1.690;2022-11-03T12:37:14;15.50;99.90
12504;DHT22;6316;48.118;-1.690;2022-11-03T12:39:40;15.50;99.90
12504;DHT22;6316;48.118;-1.690;2022-11-03T12:42:06;15.50;99.90
12504;DHT22;6316;48.118;-1.690;2022-11-03T12:44:31;15.40;99.90
12504;DHT22;6316;48.118;-1.690;2022-11-03T12:46:57;15.40;99.90
12504;DHT22;6316;48.118;-1.690;2022-11-03T12:49:23;15.30;99.90
12504;DHT22;6316;48.118;-1.690;2022-11-03T12:51:49;15.40;99.90
12504;DHT22;6316;48.118;-1.690;2022-11-03T12:54:14;15.40;99.90
12504;DHT22;6316;48.118;-1.690;2022-11-03T12:56:40;15.50;99.90
12504;DHT22;6316;48.118;-1.690;2022-11-03T12:59:06;15.50;99.90
12504;DHT22;6316;48.118;-1.690;2022-11-03T13:01:32;15.60;99.90
12504;DHT22;6316;48.118;-1.690;2022-11-03T13:03:58;15.70;99.90
12504;DHT22;6316;48.118;-1.690;2022-11-03T13:06:24;15.70;99.90
12504;DHT22;6316;48.118;-1.690;2022-11-03T13:08:50;15.80;99.90
12504;DHT22;6316;48.118;-1.690;2022-11-03T13:11:16;15.80;99.90
12504;DHT22;6316;48.118;-1.690;2022-11-03T13:14:00;15.80;99.90
12504;DHT22;6316;48.118;-1.690;2022-11-03T13:16:25;15.70;99.90
12504;DHT22;6316;48.118;-1.690;2022-11-03T13:18:51;15.60;99.90
12504;DHT22;6316;48.118;-1.690;2022-11-03T13:21:17;15.60;99.90
12504;DHT22;6316;48.118;-1.690;2022-11-03T13:23:42;15.50;99.90
12504;DHT22;6316;48.118;-1.690;2022-11-03T13:26:08;15.50;99.90
12504;DHT22;6316;48.118;-1.690;2022-11-03T13:28:34;15.40;99.90
12504;DHT22;6316;48.118;-1.690;2022-11-03T13:31:00;15.40;99.90
12504;DHT22;6316;48.118;-1.690;2022-11-03T13:33:26;15.40;99.90
12504;DHT22;6316;48.118;-1.690;2022-11-03T13:35:51;15.40;99.90
12504;DHT22;6316;48.118;-1.690;2022-11-03T13:38:17;15.40;99.90
12504;DHT22;6316;48.118;-1.690;2022-11-03T13:40:43;15.50;99.90
12504;DHT22;6316;48.118;-1.690;2022-11-03T13:43:08;15.50;99.90
12504;DHT22;6316;48.118;-1.690;2022-11-03T13:45:34;15.50;99.90
12504;DHT22;6316;48.118;-1.690;2022-11-03T13:47:59;15.60;99.90
12504;DHT22;6316;48.118;-1.690;2022-11-03T13:50:25;15.60;99.90
12504;DHT22;6316;48.118;-1.690;2022-11-03T13:52:51;15.60;99.90
12504;DHT22;6316;48.118;-1.690;2022-11-03T13:55:16;15.60;99.90
12504;DHT22;6316;48.118;-1.690;2022-11-03T13:57:42;15.60;99.90
12504;DHT22;6316;48.118;-1.690;2022-11-03T14:00:10;15.60;99.90
12504;DHT22;6316;48.118;-1.690;2022-11-03T14:02:40;15.60;99.90
12504;DHT22;6316;48.118;-1.690;2022-11-03T14:05:07;15.60;99.90
12504;DHT22;6316;48.118;-1.690;2022-11-03T14:07:32;15.60;99.90
12504;DHT22;6316;48.118;-1.690;2022-11-03T14:09:58;15.50;99.90
12504;DHT22;6316;48.118;-1.690;2022-11-03T14:12:24;15.50;99.90
12504;DHT22;6316;48.118;-1.690;2022-11-03T14:14:59;15.50;99.90
12504;DHT22;6316;48.118;-1.690;2022-11-03T14:17:25;15.50;99.90
12504;DHT22;6316;48.118;-1.690;2022-11-03T14:19:51;15.60;99.90
12504;DHT22;6316;48.118;-1.690;2022-11-03T14:22:21;15.60;99.90
12504;DHT22;6316;48.118;-1.690;2022-11-03T14:24:48;15.60;99.90
12504;DHT22;6316;48.118;-1.690;2022-11-03T14:27:14;15.60;99.90
12504;DHT22;6316;48.118;-1.690;2022-11-03T14:29:41;15.60;99.90
12504;DHT22;6316;48.118;-1.690;2022-11-03T14:32:08;15.50;99.90
12504;DHT22;6316;48.118;-1.690;2022-11-03T14:34:34;15.50;99.90
12504;DHT22;6316;48.118;-1.690;2022-11-03T14:36:59;15.50;99.90
12504;DHT22;6316;48.118;-1.690;2022-11-03T14:39:25;15.40;99.90
12504;DHT22;6316;48.118;-1.690;2022-11-03T14:41:51;15.40;99.90
12504;DHT22;6316;48.118;-1.690;2022-11-03T14:44:32;15.40;99.90
12504;DHT22;6316;48.118;-1.690;2022-11-03T14:46:59;15.40;99.90
12504;DHT22;6316;48.118;-1.690;2022-11-03T14:49:28;15.40;99.90
12504;DHT22;6316;48.118;-1.690;2022-11-03T14:51:54;15.40;99.90
12504;DHT22;6316;48.118;-1.690;2022-11-03T14:54:24;15.40;99.90
12504;DHT22;6316;48.118;-1.690;2022-11-03T14:56:50;15.40;99.90
12504;DHT22;6316;48.118;-1.690;2022-11-03T14:59:16;15.40;99.90
12504;DHT22;6316;48.118;-1.690;2022-11-03T15:01:42;15.40;99.90
12504;DHT22;6316;48.118;-1.690;2022-11-03T15:04:07;15.40;99.90
12504;DHT22;6316;48.118;-1.690;2022-11-03T15:06:34;15.40;99.90
12504;DHT22;6316;48.118;-1.690;2022-11-03T15:08:59;15.40;99.90
12504;DHT22;6316;48.118;-1.690;2022-11-03T15:11:25;15.40;99.90
12504;DHT22;6316;48.118;-1.690;2022-11-03T15:13:51;15.40;99.90
12504;DHT22;6316;48.118;-1.690;2022-11-03T15:16:16;15.40;99.90
12504;DHT22;6316;48.118;-1.690;2022-11-03T15:18:42;15.30;99.90
12504;DHT22;6316;48.118;-1.690;2022-11-03T15:21:09;15.30;99.90
12504;DHT22;6316;48.118;-1.690;2022-11-03T15:23:35;15.20;99.90
12504;DHT22;6316;48.118;-1.690;2022-11-03T15:26:01;15.10;99.90
12504;DHT22;6316;48.118;-1.690;2022-11-03T15:28:26;15.10;99.90
12504;DHT22;6316;48.118;-1.690;2022-11-03T15:30:52;15.00;99.90
12504;DHT22;6316;48.118;-1.690;2022-11-03T15:33:18;15.00;99.90
12504;DHT22;6316;48.118;-1.690;2022-11-03T15:35:44;15.00;99.90
12504;DHT22;6316;48.118;-1.690;2022-11-03T15:38:10;14.90;99.90
12504;DHT22;6316;48.118;-1.690;2022-11-03T15:40:37;14.90;99.90
12504;DHT22;6316;48.118;-1.690;2022-11-03T15:43:03;14.90;99.90
12504;DHT22;6316;48.118;-1.690;2022-11-03T15:45:31;14.90;99.90
12504;DHT22;6316;48.118;-1.690;2022-11-03T15:47:57;14.90;99.90
12504;DHT22;6316;48.118;-1.690;2022-11-03T15:50:23;14.90;99.90
12504;DHT22;6316;48.118;-1.690;2022-11-03T15:52:50;14.80;99.90
12504;DHT22;6316;48.118;-1.690;2022-11-03T15:55:16;14.80;99.90
12504;DHT22;6316;48.118;-1.690;2022-11-03T15:57:41;14.70;99.90
12504;DHT22;6316;48.118;-1.690;2022-11-03T16:00:09;14.70;99.90
12504;DHT22;6316;48.118;-1.690;2022-11-03T16:02:35;14.60;99.90
12504;DHT22;6316;48.118;-1.690;2022-11-03T16:05:00;14.60;99.90
12504;DHT22;6316;48.118;-1.690;2022-11-03T16:07:27;14.50;99.90
12504;DHT22;6316;48.118;-1.690;2022-11-03T16:09:53;14.50;99.90
12504;DHT22;6316;48.118;-1.690;2022-11-03T16:12:18;14.50;99.90
12504;DHT22;6316;48.118;-1.690;2022-11-03T16:14:44;14.40;99.90
12504;DHT22;6316;48.118;-1.690;2022-11-03T16:17:09;14.40;99.90
12504;DHT22;6316;48.118;-1.690;2022-11-03T16:19:35;14.40;99.90
12504;DHT22;6316;48.118;-1.690;2022-11-03T16:22:01;14.40;99.90
12504;DHT22;6316;48.118;-1.690;2022-11-03T16:24:26;14.40;99.90
12504;DHT22;6316;48.118;-1.690;2022-11-03T16:26:52;14.40;99.90
12504;DHT22;6316;48.118;-1.690;2022-11-03T16:29:18;14.30;99.90
12504;DHT22;6316;48.118;-1.690;2022-11-03T16:31:43;14.30;99.90
12504;DHT22;6316;48.118;-1.690;2022-11-03T16:34:12;14.30;99.90
12504;DHT22;6316;48.118;-1.690;2022-11-03T16:36:38;14.20;99.90
12504;DHT22;6316;48.118;-1.690;2022-11-03T16:39:03;14.20;99.90
12504;DHT22;6316;48.118;-1.690;2022-11-03T16:41:29;14.10;99.90
12504;DHT22;6316;48.118;-1.690;2022-11-03T16:43:55;14.10;99.90
12504;DHT22;6316;48.118;-1.690;2022-11-03T16:46:21;14.00;99.90
12504;DHT22;6316;48.118;-1.690;2022-11-03T16:48:46;14.00;99.90
12504;DHT22;6316;48.118;-1.690;2022-11-03T16:51:12;14.00;99.90
12504;DHT22;6316;48.118;-1.690;2022-11-03T16:53:38;13.90;99.90